Time;durP1;ratioP1;P1;durP2;ratioP2;P2;SDS_P1;SDS_P2;PMS_P1;PMS_P2;Temp;Humidity;BMP_temperature;BMP_pressure;BME280_temperature;BME280_humidity;BME280_pressure;Samples;Min_cycle;Max_cycle;Signal;HPM_P1;HPM_P2
2022/11/26 00:02:15;;;;;;;9.93;4.70;;;4.90;99.90;;;;;;5074860;28;20171;-78
2022/11/26 00:04:40;;;;;;;13.90;4.70;;;4.90;99.90;;;;;;5074194;28;20167;-78
2022/11/26 00:07:12;;;;;;;11.13;4.00;;;4.90;99.90;;;;;;5075263;28;20202;-78
2022/11/26 00:09:38;;;;;;;13.20;4.67;;;4.80;99.90;;;;;;5073965;28;20168;-78
2022/11/26 00:12:31;;;;;;;9.33;4.53;;;4.80;99.90;;;;;;5075817;28;20207;-78
2022/11/26 00:14:59;;;;;;;8.63;3.93;;;4.70;99.90;;;;;;5073586;28;20187;-78
2022/11/26 00:17:24;;;;;;;7.17;3.70;;;4.70;99.90;;;;;;5074407;28;20195;-78
2022/11/26 00:19:50;;;;;;;11.77;3.53;;;4.70;99.90;;;;;;5076296;28;20580;-78
2022/11/26 00:22:29;;;;;;;6.07;3.67;;;4.70;99.90;;;;;;5075467;28;20175;-78
2022/11/26 00:24:55;;;;;;;10.33;4.20;;;4.70;99.90;;;;;;5075139;28;20257;-77
2022/11/26 00:27:26;;;;;;;6.37;4.30;;;4.60;99.90;;;;;;5072852;28;20195;-77
2022/11/26 00:29:52;;;;;;;8.00;3.53;;;4.60;99.90;;;;;;5074433;28;20189;-77
2022/11/26 00:32:20;;;;;;;9.70;3.67;;;4.50;99.90;;;;;;5073063;28;20224;-76
2022/11/26 00:34:46;;;;;;;10.70;4.13;;;4.50;99.90;;;;;;5071627;28;20178;-77
2022/11/26 00:37:24;;;;;;;6.77;3.57;;;4.50;99.90;;;;;;5072789;28;20198;-76
2022/11/26 00:39:50;;;;;;;11.70;3.50;;;4.40;99.90;;;;;;5071602;28;20643;-76
2022/11/26 00:42:17;;;;;;;9.57;3.50;;;4.40;99.90;;;;;;5072740;28;20171;-76
2022/11/26 00:44:43;;;;;;;6.90;3.50;;;4.30;99.90;;;;;;5073216;28;20178;-76
2022/11/26 00:47:10;;;;;;;5.80;3.60;;;4.30;99.90;;;;;;5072513;28;20599;-74
2022/11/26 00:49:36;;;;;;;7.40;3.67;;;4.30;99.90;;;;;;5071578;28;20257;-77
2022/11/26 00:52:01;;;;;;;10.50;3.80;;;4.30;99.90;;;;;;5072597;28;20197;-77
2022/11/26 00:54:28;;;;;;;9.67;3.90;;;4.30;99.90;;;;;;5071397;28;20277;-77
2022/11/26 00:56:53;;;;;;;6.40;3.20;;;4.30;99.90;;;;;;5072550;28;20222;-77
2022/11/26 00:59:21;;;;;;;8.40;4.27;;;4.20;99.90;;;;;;5072650;28;20675;-77
2022/11/26 01:01:47;;;;;;;5.50;3.63;;;4.20;99.90;;;;;;5072654;28;20662;-77
2022/11/26 01:04:13;;;;;;;12.80;3.77;;;4.20;99.90;;;;;;5072859;28;20270;-78
2022/11/26 01:06:41;;;;;;;10.53;4.20;;;4.20;99.90;;;;;;5072675;28;20206;-77
2022/11/26 01:09:16;;;;;;;8.23;3.00;;;4.30;99.90;;;;;;5071118;28;20179;-78
2022/11/26 01:11:41;;;;;;;5.13;3.40;;;4.30;99.90;;;;;;5072366;28;20182;-78
2022/11/26 01:14:15;;;;;;;11.27;3.27;;;4.30;99.90;;;;;;5073482;28;20629;-74
2022/11/26 01:16:43;;;;;;;6.47;3.27;;;4.30;99.90;;;;;;5076690;28;20637;-77
2022/11/26 01:19:11;;;;;;;7.57;3.97;;;4.40;99.90;;;;;;5076389;28;20182;-76
2022/11/26 01:21:37;;;;;;;6.63;3.27;;;4.40;99.90;;;;;;5074784;28;20182;-77
2022/11/26 01:24:03;;;;;;;10.93;3.87;;;4.40;99.90;;;;;;5074745;28;20179;-75
2022/11/26 01:26:35;;;;;;;8.80;3.63;;;4.40;99.90;;;;;;5076281;28;20241;-77
2022/11/26 01:29:01;;;;;;;8.10;4.00;;;4.40;99.90;;;;;;5076281;28;20205;-76
2022/11/26 01:31:28;;;;;;;5.30;3.73;;;4.50;99.90;;;;;;5075989;28;20174;-77
2022/11/26 01:33:54;;;;;;;5.67;3.87;;;4.50;99.90;;;;;;5074510;28;20175;-77
2022/11/26 01:36:28;;;;;;;8.37;3.97;;;4.60;99.90;;;;;;5074506;28;20222;-76
2022/11/26 01:38:56;;;;;;;8.97;3.73;;;4.60;99.90;;;;;;5076132;28;20228;-76
2022/11/26 01:41:58;;;;;;;9.70;4.03;;;4.60;99.90;;;;;;5076114;28;20178;-77
2022/11/26 01:44:27;;;;;;;9.43;4.20;;;4.60;99.90;;;;;;5074664;28;20570;-77
2022/11/26 01:46:53;;;;;;;8.80;4.30;;;4.70;99.90;;;;;;5075405;28;20271;-77
2022/11/26 01:49:28;;;;;;;10.03;3.90;;;4.70;99.90;;;;;;5074425;28;20551;-76
2022/11/26 01:52:03;;;;;;;9.27;4.23;;;4.70;99.90;;;;;;5074114;28;20202;-77
2022/11/26 01:54:31;;;;;;;11.77;4.20;;;4.70;99.90;;;;;;5074317;28;20228;-77
2022/11/26 01:57:16;;;;;;;9.13;4.10;;;4.70;99.90;;;;;;5074385;28;20285;-78
2022/11/26 01:59:45;;;;;;;15.73;5.00;;;4.70;99.90;;;;;;5074448;28;20174;-77
2022/11/26 02:02:11;;;;;;;9.73;4.07;;;4.70;99.90;;;;;;5074307;28;20214;-78
2022/11/26 02:04:59;;;;;;;8.17;4.20;;;4.60;99.90;;;;;;5074219;28;20209;-76
2022/11/26 02:07:24;;;;;;;12.87;4.10;;;4.60;99.90;;;;;;5075117;28;20560;-76
2022/11/26 02:09:50;;;;;;;8.17;4.00;;;4.60;99.90;;;;;;5075646;28;20262;-77
2022/11/26 02:12:15;;;;;;;10.93;4.50;;;4.50;99.90;;;;;;5074147;28;20182;-77
2022/11/26 02:14:43;;;;;;;16.43;4.77;;;4.50;99.90;;;;;;5075563;28;20195;-77
2022/11/26 02:17:17;;;;;;;9.93;4.03;;;4.50;99.90;;;;;;5075653;28;20285;-77
2022/11/26 02:19:58;;;;;;;12.17;4.03;;;4.40;99.90;;;;;;5075705;28;20170;-77
2022/11/26 02:22:48;;;;;;;10.83;3.63;;;4.40;99.90;;;;;;5075426;28;20209;-77
2022/11/26 02:25:47;;;;;;;10.37;4.70;;;4.30;99.90;;;;;;5074966;28;20174;-76
2022/11/26 02:28:22;;;;;;;11.80;4.10;;;4.20;99.90;;;;;;5075198;28;20258;-77
2022/11/26 02:31:11;;;;;;;10.60;4.10;;;4.20;99.90;;;;;;5075496;28;20161;-77
2022/11/26 02:33:50;;;;;;;6.03;3.50;;;4.20;99.90;;;;;;5075510;28;20191;-76
2022/11/26 02:36:31;;;;;;;9.20;3.90;;;4.10;99.90;;;;;;5073972;28;20538;-76
2022/11/26 02:38:56;;;;;;;10.57;4.70;;;4.10;99.90;;;;;;5073599;28;20161;-77
2022/11/26 02:41:22;;;;;;;9.73;4.20;;;4.00;99.90;;;;;;5075286;28;20254;-77
2022/11/26 02:43:48;;;;;;;12.67;4.47;;;4.00;99.90;;;;;;5074889;28;20177;-77
2022/11/26 02:46:18;;;;;;;11.80;4.50;;;4.00;99.90;;;;;;5073480;28;20175;-76
2022/11/26 02:48:48;;;;;;;11.43;4.37;;;4.00;99.90;;;;;;5075464;28;20252;-77
2022/11/26 02:51:19;;;;;;;11.70;4.87;;;3.90;99.90;;;;;;5075279;28;20213;-76
2022/11/26 02:53:46;;;;;;;7.30;4.27;;;3.90;99.90;;;;;;5073584;28;20174;-76
2022/11/26 02:56:16;;;;;;;11.93;4.50;;;3.90;99.90;;;;;;5074877;28;20163;-78
2022/11/26 02:58:42;;;;;;;10.10;4.33;;;3.80;99.90;;;;;;5075189;28;20178;-77
2022/11/26 03:01:17;;;;;;;8.07;4.57;;;3.90;99.90;;;;;;5074948;28;20185;-78
2022/11/26 03:03:47;;;;;;;6.97;4.30;;;3.80;99.90;;;;;;5074898;28;20598;-75
2022/11/26 03:06:15;;;;;;;9.17;4.00;;;3.80;99.90;;;;;;5075145;28;20182;-77
2022/11/26 03:08:44;;;;;;;9.23;4.17;;;3.70;99.90;;;;;;5075306;28;20670;-78
2022/11/26 03:11:11;;;;;;;9.90;4.27;;;3.70;99.90;;;;;;5075294;28;20171;-77
2022/11/26 03:13:36;;;;;;;9.47;4.00;;;3.70;99.90;;;;;;5073925;28;20267;-77
2022/11/26 03:16:03;;;;;;;12.17;4.27;;;3.70;99.90;;;;;;5075092;28;20190;-78
2022/11/26 03:18:28;;;;;;;16.20;4.50;;;3.70;99.90;;;;;;5075295;28;20618;-77
2022/11/26 03:20:54;;;;;;;13.97;4.97;;;3.70;99.90;;;;;;5074110;28;20178;-78
2022/11/26 03:23:20;;;;;;;5.87;4.10;;;3.70;99.90;;;;;;5073618;28;20183;-78
2022/11/26 03:25:45;;;;;;;14.00;4.60;;;3.60;99.90;;;;;;5075049;28;20209;-77
2022/11/26 03:28:11;;;;;;;14.23;5.37;;;3.70;99.90;;;;;;5075049;28;20210;-78
2022/11/26 03:30:36;;;;;;;7.03;4.90;;;3.80;99.90;;;;;;5075030;28;20186;-77
2022/11/26 03:33:02;;;;;;;14.77;4.83;;;3.70;99.90;;;;;;5075283;28;20224;-78
2022/11/26 03:35:27;;;;;;;14.13;4.93;;;3.70;99.90;;;;;;5074990;28;20175;-78
2022/11/26 03:37:53;;;;;;;11.80;5.03;;;3.80;99.90;;;;;;5075176;28;20203;-76
2022/11/26 03:40:18;;;;;;;15.60;5.77;;;3.80;99.90;;;;;;5076442;28;20189;-76
2022/11/26 03:42:44;;;;;;;12.23;5.07;;;3.80;99.90;;;;;;5075408;28;20175;-77
2022/11/26 03:45:11;;;;;;;13.97;4.43;;;3.80;99.90;;;;;;5073412;28;20551;-77
2022/11/26 03:47:37;;;;;;;11.73;4.70;;;3.80;99.90;;;;;;5072166;28;20264;-77
2022/11/26 03:50:04;;;;;;;17.37;5.10;;;3.80;99.90;;;;;;5073661;28;20234;-77
2022/11/26 03:52:30;;;;;;;17.10;5.20;;;3.80;99.90;;;;;;5077297;28;20724;-75
2022/11/26 03:54:55;;;;;;;9.07;4.43;;;3.80;99.90;;;;;;5076723;28;20266;-77
2022/11/26 03:57:21;;;;;;;9.30;4.80;;;3.90;99.90;;;;;;5075460;28;20251;-77
2022/11/26 03:59:47;;;;;;;10.27;4.70;;;3.90;99.90;;;;;;5075153;28;20257;-78
2022/11/26 04:02:12;;;;;;;9.80;5.03;;;3.90;99.90;;;;;;5075088;28;20182;-78
2022/11/26 04:04:38;;;;;;;12.70;5.50;;;3.90;99.90;;;;;;5073560;28;20643;-78
2022/11/26 04:07:03;;;;;;;14.40;5.43;;;3.90;99.90;;;;;;5074609;28;20229;-78
2022/11/26 04:09:29;;;;;;;8.93;5.03;;;3.90;99.90;;;;;;5073898;28;20306;-78
2022/11/26 04:11:55;;;;;;;8.07;4.33;;;3.90;99.90;;;;;;5074233;28;20171;-78
2022/11/26 04:14:20;;;;;;;9.17;4.60;;;3.90;99.90;;;;;;5073147;28;20201;-78
2022/11/26 04:16:46;;;;;;;22.10;5.07;;;4.00;99.90;;;;;;5074787;28;20187;-78
2022/11/26 04:19:11;;;;;;;13.83;4.87;;;4.00;99.90;;;;;;5074653;28;20182;-78
2022/11/26 04:21:37;;;;;;;13.27;5.07;;;4.00;99.90;;;;;;5073297;28;20258;-78
2022/11/26 04:24:02;;;;;;;12.07;5.13;;;4.00;99.90;;;;;;5074548;28;20179;-77
2022/11/26 04:26:28;;;;;;;9.53;4.97;;;4.10;99.90;;;;;;5074471;28;20240;-78
2022/11/26 04:28:54;;;;;;;12.30;5.07;;;4.10;99.90;;;;;;5074583;28;20199;-78
2022/11/26 04:31:19;;;;;;;11.90;5.33;;;4.20;99.90;;;;;;5074361;28;20171;-78
2022/11/26 04:33:45;;;;;;;12.37;5.40;;;4.20;99.90;;;;;;5074027;28;20201;-78
2022/11/26 04:36:10;;;;;;;17.30;5.93;;;4.30;99.90;;;;;;5072905;28;20170;-77
2022/11/26 04:38:36;;;;;;;19.70;5.80;;;4.30;99.90;;;;;;5074554;28;20174;-78
2022/11/26 04:41:02;;;;;;;14.37;5.77;;;4.30;99.90;;;;;;5071218;28;20565;-78
2022/11/26 04:43:28;;;;;;;21.57;5.83;;;4.40;99.90;;;;;;5052702;28;20191;-78
2022/11/26 04:45:53;;;;;;;13.87;6.07;;;4.40;99.90;;;;;;5054293;28;20622;-78
2022/11/26 04:48:19;;;;;;;18.03;5.67;;;4.40;99.90;;;;;;5053926;28;20207;-78
2022/11/26 04:50:45;;;;;;;18.70;6.07;;;4.50;99.90;;;;;;5057372;28;20180;-77
2022/11/26 04:53:10;;;;;;;13.10;6.00;;;4.50;99.90;;;;;;5058365;28;20198;-77
2022/11/26 04:55:36;;;;;;;15.70;5.20;;;4.50;99.90;;;;;;5058020;28;20201;-78
2022/11/26 04:58:01;;;;;;;18.53;5.90;;;4.50;99.90;;;;;;5058003;28;20192;-78
2022/11/26 05:00:27;;;;;;;14.17;6.00;;;4.50;99.90;;;;;;5057635;28;20589;-77
2022/11/26 05:02:53;;;;;;;24.20;6.03;;;4.60;99.90;;;;;;5056854;28;20519;-78
2022/11/26 05:05:18;;;;;;;15.63;6.27;;;4.60;99.90;;;;;;5057537;28;20199;-77
2022/11/26 05:07:44;;;;;;;16.33;5.67;;;4.60;99.90;;;;;;5056240;28;20514;-78
2022/11/26 05:10:10;;;;;;;19.90;6.27;;;4.60;99.90;;;;;;5056212;28;20178;-78
2022/11/26 05:12:36;;;;;;;17.37;6.00;;;4.60;99.90;;;;;;5055965;28;20168;-78
2022/11/26 05:15:01;;;;;;;21.60;6.07;;;4.70;99.90;;;;;;5057454;28;20187;-79
2022/11/26 05:17:27;;;;;;;14.57;5.63;;;4.60;99.90;;;;;;5057013;28;20534;-78
2022/11/26 05:19:53;;;;;;;16.13;5.77;;;4.70;99.90;;;;;;5056438;28;20175;-78
2022/11/26 05:22:18;;;;;;;16.70;5.83;;;4.70;99.90;;;;;;5055893;28;20216;-78
2022/11/26 05:24:44;;;;;;;12.63;5.80;;;4.70;99.90;;;;;;5057651;28;20602;-78
2022/11/26 05:27:09;;;;;;;15.03;5.93;;;4.70;99.90;;;;;;5056925;28;20549;-78
2022/11/26 05:29:35;;;;;;;14.93;5.70;;;4.70;99.90;;;;;;5056069;28;20175;-78
2022/11/26 05:32:00;;;;;;;15.13;4.67;;;4.70;99.90;;;;;;5055947;28;20172;-78
2022/11/26 05:34:26;;;;;;;11.20;6.03;;;4.70;99.90;;;;;;5055702;28;20657;-78
2022/11/26 05:36:51;;;;;;;15.93;5.00;;;4.70;99.90;;;;;;5055568;28;20202;-78
2022/11/26 05:39:17;;;;;;;13.20;5.70;;;4.70;99.90;;;;;;5057284;28;20669;-78
2022/11/26 05:41:42;;;;;;;15.30;5.43;;;4.80;99.90;;;;;;5056910;28;20172;-78
2022/11/26 05:44:08;;;;;;;17.17;6.17;;;4.80;99.90;;;;;;5056796;28;20180;-76
2022/11/26 05:46:37;;;;;;;14.57;5.50;;;4.80;99.90;;;;;;5056812;28;20602;-78
2022/11/26 05:49:03;;;;;;;15.83;6.23;;;4.90;99.90;;;;;;5056741;28;20218;-78
2022/11/26 05:51:28;;;;;;;20.00;6.00;;;4.90;99.90;;;;;;5056955;28;20203;-78
2022/11/26 05:53:54;;;;;;;16.40;5.47;;;4.90;99.90;;;;;;5055453;28;20262;-77
2022/11/26 05:56:19;;;;;;;14.17;6.60;;;4.90;99.90;;;;;;5056862;28;20590;-77
2022/11/26 05:58:45;;;;;;;12.93;5.77;;;4.90;99.90;;;;;;5056617;28;20661;-78
2022/11/26 06:01:10;;;;;;;17.13;5.77;;;5.00;99.90;;;;;;5057030;28;20221;-78
2022/11/26 06:03:36;;;;;;;15.60;5.90;;;5.00;99.90;;;;;;5057436;28;20168;-78
2022/11/26 06:06:03;;;;;;;18.33;6.43;;;5.00;99.90;;;;;;5055628;28;20199;-78
2022/11/26 06:08:28;;;;;;;13.60;6.20;;;5.00;99.90;;;;;;5056633;28;20685;-78
2022/11/26 06:10:54;;;;;;;18.93;6.87;;;5.00;99.90;;;;;;5056673;28;20259;-78
2022/11/26 06:13:19;;;;;;;18.00;7.43;;;5.10;99.90;;;;;;5057454;28;20172;-78
2022/11/26 06:15:45;;;;;;;28.80;7.30;;;5.10;99.90;;;;;;5057033;28;20212;-78
2022/11/26 06:18:10;;;;;;;22.90;7.57;;;5.20;99.90;;;;;;5055453;28;20227;-78
2022/11/26 06:20:37;;;;;;;23.77;7.67;;;5.20;99.90;;;;;;5057262;28;20664;-78
2022/11/26 06:23:03;;;;;;;22.60;7.50;;;5.10;99.90;;;;;;5055769;28;20176;-78
2022/11/26 06:25:28;;;;;;;18.63;7.33;;;5.10;99.90;;;;;;5056991;28;20258;-78
2022/11/26 06:27:55;;;;;;;18.07;7.90;;;5.20;99.90;;;;;;5056002;28;20196;-78
2022/11/26 06:30:20;;;;;;;12.37;7.03;;;5.10;99.90;;;;;;5080675;22;20592;-74
2022/11/26 06:32:46;;;;;;;25.37;7.00;;;5.10;99.90;;;;;;5055126;28;20179;-76
2022/11/26 06:35:12;;;;;;;19.70;7.13;;;5.10;99.90;;;;;;5054738;28;20175;-80
2022/11/26 06:37:37;;;;;;;17.43;7.13;;;5.00;99.90;;;;;;5054039;28;20705;-76
2022/11/26 06:40:03;;;;;;;20.60;7.27;;;5.00;99.90;;;;;;5033692;28;20687;-78
2022/11/26 06:42:29;;;;;;;14.67;6.37;;;5.00;99.90;;;;;;5012179;28;20217;-76
2022/11/26 06:44:55;;;;;;;18.73;6.40;;;5.00;99.90;;;;;;5014814;28;20177;-76
2022/11/26 06:47:20;;;;;;;17.37;6.33;;;4.90;99.90;;;;;;5014787;28;20197;-77
2022/11/26 06:49:46;;;;;;;15.10;6.07;;;4.90;99.90;;;;;;5014829;28;20677;-77
2022/11/26 06:52:12;;;;;;;16.23;6.20;;;4.90;99.90;;;;;;5013398;28;20177;-77
2022/11/26 06:54:38;;;;;;;11.43;5.40;;;4.90;99.90;;;;;;5014682;28;20565;-77
2022/11/26 06:57:03;;;;;;;11.13;5.43;;;4.90;99.90;;;;;;5015790;28;20189;-77
2022/11/26 06:59:29;;;;;;;15.77;5.23;;;4.80;99.90;;;;;;5016446;28;20203;-75
2022/11/26 07:01:55;;;;;;;13.57;5.87;;;4.80;99.90;;;;;;5026827;28;20177;-77
2022/11/26 07:04:20;;;;;;;18.37;5.07;;;4.80;99.90;;;;;;5029137;28;20184;-77
2022/11/26 07:06:46;;;;;;;7.40;4.60;;;4.70;99.90;;;;;;5033816;28;20180;-76
2022/11/26 07:09:12;;;;;;;13.00;4.90;;;4.70;99.90;;;;;;5016593;28;20538;-77
2022/11/26 07:11:39;;;;;;;16.57;5.90;;;4.70;99.90;;;;;;5034051;28;20255;-76
2022/11/26 07:14:06;;;;;;;12.87;4.83;;;4.70;99.90;;;;;;5021179;28;20585;-76
2022/11/26 07:16:31;;;;;;;17.67;5.50;;;4.60;99.90;;;;;;5012923;28;20561;-76
2022/11/26 07:18:58;;;;;;;15.77;7.27;;;4.60;99.90;;;;;;5014157;28;20196;-76
2022/11/26 07:21:24;;;;;;;12.03;6.30;;;4.70;99.90;;;;;;5012771;28;20272;-76
2022/11/26 07:23:50;;;;;;;21.20;7.13;;;4.70;99.90;;;;;;5014040;28;20215;-75
2022/11/26 07:26:18;;;;;;;17.37;7.33;;;4.70;99.90;;;;;;5013973;28;20169;-75
2022/11/26 07:28:46;;;;;;;22.80;7.53;;;4.70;99.90;;;;;;5013918;28;20207;-76
2022/11/26 07:31:14;;;;;;;13.67;6.40;;;4.70;99.90;;;;;;5013148;28;20165;-76
2022/11/26 07:33:40;;;;;;;12.07;6.20;;;4.70;99.90;;;;;;5013027;28;20548;-76
2022/11/26 07:36:10;;;;;;;19.93;6.63;;;4.60;99.90;;;;;;5021027;28;20173;-78
2022/11/26 07:38:35;;;;;;;11.97;6.87;;;4.60;99.90;;;;;;5020440;28;20212;-77
2022/11/26 07:41:06;;;;;;;12.20;7.10;;;4.60;99.90;;;;;;5001092;28;20173;-78
2022/11/26 07:43:36;;;;;;;16.37;7.20;;;4.60;99.90;;;;;;5020160;28;20169;-77
2022/11/26 07:46:04;;;;;;;15.63;6.67;;;4.60;99.90;;;;;;5017482;28;20268;-78
2022/11/26 07:48:31;;;;;;;11.60;6.20;;;4.60;99.90;;;;;;5019397;28;20205;-76
2022/11/26 07:50:58;;;;;;;17.73;6.10;;;4.60;99.90;;;;;;5019785;28;20603;-78
2022/11/26 07:53:26;;;;;;;13.53;5.57;;;4.60;99.90;;;;;;5020292;28;20264;-77
2022/11/26 07:55:51;;;;;;;11.03;6.27;;;4.60;99.90;;;;;;5015776;28;20169;-76
2022/11/26 07:58:17;;;;;;;13.40;6.03;;;4.70;99.90;;;;;;5014353;28;20177;-78
2022/11/26 08:00:42;;;;;;;15.67;7.23;;;4.70;99.90;;;;;;5014920;28;20579;-75
2022/11/26 08:03:08;;;;;;;15.40;7.53;;;4.80;99.90;;;;;;5015369;28;20169;-76
2022/11/26 08:05:33;;;;;;;16.47;7.37;;;4.80;99.90;;;;;;5015403;28;20169;-77
2022/11/26 08:07:59;;;;;;;18.27;8.47;;;4.90;99.90;;;;;;5015331;28;20205;-76
2022/11/26 08:10:24;;;;;;;21.27;7.83;;;4.90;99.90;;;;;;5015152;28;20189;-76
2022/11/26 08:12:50;;;;;;;18.27;7.80;;;5.00;99.90;;;;;;5013386;28;20169;-76
2022/11/26 08:15:16;;;;;;;24.60;7.83;;;4.90;99.90;;;;;;5014776;28;20164;-77
2022/11/26 08:17:42;;;;;;;22.00;7.10;;;5.00;99.90;;;;;;5014946;28;20199;-77
2022/11/26 08:20:07;;;;;;;13.67;6.93;;;5.00;99.90;;;;;;5014261;28;20779;-76
2022/11/26 08:22:33;;;;;;;16.87;8.23;;;5.10;99.90;;;;;;5014586;28;20710;-76
2022/11/26 08:24:59;;;;;;;18.03;8.10;;;5.10;99.90;;;;;;5014042;28;20207;-76
2022/11/26 08:27:24;;;;;;;20.33;7.77;;;5.10;99.90;;;;;;5014316;28;20578;-76
2022/11/26 08:29:50;;;;;;;17.40;7.87;;;5.10;99.90;;;;;;5015443;28;20215;-76
2022/11/26 08:32:15;;;;;;;16.07;7.80;;;5.20;99.90;;;;;;5015958;28;20169;-76
2022/11/26 08:34:41;;;;;;;19.20;7.00;;;5.20;99.90;;;;;;5017009;28;20611;-78
2022/11/26 08:37:06;;;;;;;17.27;8.43;;;5.20;99.90;;;;;;5021330;28;20176;-80
2022/11/26 08:39:32;;;;;;;15.63;7.33;;;5.20;99.90;;;;;;5019838;28;20193;-78
2022/11/26 08:41:57;;;;;;;14.07;6.77;;;5.30;99.90;;;;;;5020273;28;20173;-78
2022/11/26 08:44:23;;;;;;;14.23;6.33;;;5.30;99.90;;;;;;5020872;28;20655;-78
2022/11/26 08:46:49;;;;;;;15.27;6.87;;;5.30;99.90;;;;;;5022661;28;20540;-78
2022/11/26 08:49:15;;;;;;;19.13;7.73;;;5.30;99.90;;;;;;5019989;28;20227;-78
2022/11/26 08:51:42;;;;;;;16.87;7.37;;;5.40;99.90;;;;;;5019418;28;20181;-78
2022/11/26 08:54:08;;;;;;;17.10;7.50;;;5.50;99.90;;;;;;5021500;28;20647;-78
2022/11/26 08:56:33;;;;;;;18.13;7.03;;;5.50;99.90;;;;;;5023637;28;20177;-78
2022/11/26 08:58:59;;;;;;;18.17;7.40;;;5.50;99.90;;;;;;5019321;28;20193;-78
2022/11/26 09:01:27;;;;;;;14.80;6.97;;;5.60;99.90;;;;;;5020600;28;20181;-79
2022/11/26 09:03:55;;;;;;;19.03;7.97;;;5.70;99.90;;;;;;5019348;28;20177;-80
2022/11/26 09:06:22;;;;;;;20.40;7.53;;;5.70;99.90;;;;;;5020979;28;20182;-79
2022/11/26 09:11:35;;;;;;;18.30;7.13;;;5.80;99.90;;;;;;5022001;28;20164;-78
2022/11/26 09:14:01;;;;;;;25.00;8.03;;;5.90;99.90;;;;;;5020127;28;20211;-78
2022/11/26 09:16:27;;;;;;;15.43;6.67;;;5.90;99.90;;;;;;5022420;28;20199;-78
2022/11/26 09:18:53;;;;;;;21.43;7.63;;;6.00;99.90;;;;;;5024504;28;20416;-79
2022/11/26 09:21:19;;;;;;;23.70;7.53;;;6.00;99.90;;;;;;5025923;28;20173;-79
2022/11/26 09:23:44;;;;;;;35.07;7.43;;;6.10;99.90;;;;;;5025584;28;20177;-79
2022/11/26 09:26:10;;;;;;;15.47;6.73;;;6.10;99.90;;;;;;5025100;28;20191;-79
2022/11/26 09:28:35;;;;;;;16.07;6.33;;;6.10;99.90;;;;;;5008368;28;20231;-79
2022/11/26 09:31:01;;;;;;;11.60;6.10;;;6.10;99.90;;;;;;5025291;28;20184;-81
2022/11/26 09:33:28;;;;;;;21.80;6.50;;;6.10;99.90;;;;;;5021695;28;20188;-80
2022/11/26 09:35:54;;;;;;;25.27;6.70;;;6.20;99.90;;;;;;5024896;28;20231;-80
2022/11/26 09:38:20;;;;;;;19.20;6.20;;;6.30;99.90;;;;;;5029361;28;20186;-79
2022/11/26 09:41:02;;;;;;;15.10;6.07;;;6.30;99.90;;;;;;5031392;28;20260;-80
2022/11/26 09:43:40;;;;;;;12.17;5.80;;;6.40;99.90;;;;;;5012350;28;20248;-79
2022/11/26 09:46:07;;;;;;;18.70;6.27;;;6.40;99.90;;;;;;5009736;28;20176;-77
2022/11/26 09:48:33;;;;;;;16.00;7.43;;;6.50;99.90;;;;;;5021580;28;20207;-78
2022/11/26 09:51:05;;;;;;;16.50;6.50;;;6.50;99.90;;;;;;5019610;28;20648;-78
2022/11/26 09:53:35;;;;;;;19.40;6.83;;;6.50;99.90;;;;;;5022005;28;20165;-75
2022/11/26 09:56:01;;;;;;;13.83;5.93;;;6.60;99.90;;;;;;5026097;28;20200;-78
2022/11/26 09:58:47;;;;;;;22.50;7.00;;;6.70;99.90;;;;;;5020801;28;20177;-77
2022/11/26 10:01:18;;;;;;;27.13;6.77;;;6.80;99.90;;;;;;5019709;28;20169;-78
2022/11/26 10:03:43;;;;;;;18.77;6.57;;;6.90;99.90;;;;;;5017443;28;20177;-76
2022/11/26 10:06:46;;;;;;;15.73;6.33;;;6.90;99.90;;;;;;5016749;28;20550;-76
2022/11/26 10:09:23;;;;;;;20.23;6.67;;;7.00;99.90;;;;;;5014522;28;20211;-76
2022/11/26 10:11:52;;;;;;;18.00;6.50;;;7.00;99.90;;;;;;5002381;28;20263;-78
2022/11/26 10:14:31;;;;;;;13.93;5.60;;;7.00;99.90;;;;;;5011470;28;20241;-81
2022/11/26 10:17:11;;;;;;;16.43;5.87;;;7.10;99.90;;;;;;5033309;28;20240;-82
2022/11/26 10:19:36;;;;;;;14.80;6.63;;;7.20;99.90;;;;;;5028086;28;20193;-81
2022/11/26 10:22:29;;;;;;;15.17;6.00;;;7.20;99.90;;;;;;5009820;28;20331;-82
2022/11/26 10:24:56;;;;;;;14.20;5.97;;;7.30;99.90;;;;;;5028219;28;20180;-82
2022/11/26 10:27:25;;;;;;;20.93;6.50;;;7.30;99.90;;;;;;5023443;28;20678;-81
2022/11/26 10:30:08;;;;;;;19.53;6.77;;;7.40;99.90;;;;;;5018500;28;20208;-82
2022/11/26 10:32:39;;;;;;;13.30;5.97;;;7.50;99.90;;;;;;5016977;28;20210;-82
2022/11/26 10:35:05;;;;;;;26.87;6.50;;;7.50;99.90;;;;;;5019216;28;20628;-84
2022/11/26 10:37:31;;;;;;;18.50;6.57;;;7.60;99.90;;;;;;5021416;28;20181;-81
2022/11/26 10:40:24;;;;;;;13.17;6.80;;;7.70;99.90;;;;;;5021204;28;20687;-82
2022/11/26 10:42:55;;;;;;;15.20;6.30;;;7.70;99.90;;;;;;5003557;28;20167;-81
2022/11/26 10:45:24;;;;;;;18.57;6.63;;;7.80;99.90;;;;;;5002968;28;20181;-80
2022/11/26 10:47:50;;;;;;;14.70;5.97;;;7.80;99.90;;;;;;5015381;28;20698;-80
2022/11/26 10:50:25;;;;;;;13.97;6.30;;;7.80;99.90;;;;;;5018446;28;20191;-80
2022/11/26 10:52:52;;;;;;;18.90;6.47;;;7.90;99.90;;;;;;5000117;28;20647;-80
2022/11/26 10:55:26;;;;;;;25.50;7.33;;;7.90;99.90;;;;;;5019450;28;20239;-80
2022/11/26 10:58:01;;;;;;;24.00;6.73;;;8.00;99.90;;;;;;5017094;28;20179;-82
2022/11/26 11:00:48;;;;;;;18.03;6.30;;;8.00;99.90;;;;;;5014746;28;20273;-79
2022/11/26 11:03:18;;;;;;;26.23;6.87;;;8.00;99.90;;;;;;4997951;28;20176;-80
2022/11/26 11:05:44;;;;;;;14.47;6.40;;;8.10;99.90;;;;;;4998735;28;20239;-80
2022/11/26 11:08:26;;;;;;;21.93;6.70;;;8.10;99.90;;;;;;5015477;28;20242;-81
2022/11/26 11:10:54;;;;;;;12.43;5.70;;;8.10;99.90;;;;;;5015924;28;20165;-79
2022/11/26 11:13:20;;;;;;;16.17;6.50;;;8.20;99.90;;;;;;5016243;28;20647;-81
2022/11/26 11:15:45;;;;;;;13.50;6.17;;;8.20;99.90;;;;;;5019533;28;20323;-80
2022/11/26 11:18:11;;;;;;;12.90;6.40;;;8.30;99.90;;;;;;5022406;28;20176;-80
2022/11/26 11:20:39;;;;;;;10.90;5.97;;;8.30;99.90;;;;;;5004775;28;20573;-80
2022/11/26 11:23:09;;;;;;;13.53;6.00;;;8.30;99.90;;;;;;5023040;28;20586;-81
2022/11/26 11:25:38;;;;;;;21.77;7.00;;;8.30;99.90;;;;;;5019189;28;20189;-79
2022/11/26 11:28:21;;;;;;;14.10;5.80;;;8.40;99.90;;;;;;5015181;28;20235;-79
2022/11/26 11:31:06;;;;;;;11.50;4.93;;;8.40;99.90;;;;;;5016380;28;20224;-80
2022/11/26 11:33:32;;;;;;;13.03;5.77;;;8.50;99.90;;;;;;5016942;28;20237;-78
2022/11/26 11:36:02;;;;;;;11.47;5.30;;;8.50;99.90;;;;;;5016294;28;20204;-79
2022/11/26 11:38:31;;;;;;;15.03;5.43;;;8.50;99.90;;;;;;5014805;28;20709;-76
2022/11/26 11:41:01;;;;;;;16.57;5.23;;;8.50;99.90;;;;;;5013806;28;20177;-76
2022/11/26 11:43:27;;;;;;;16.13;5.50;;;8.50;99.90;;;;;;5014001;28;20188;-76
2022/11/26 11:46:27;;;;;;;19.13;5.60;;;8.60;99.90;;;;;;5013725;28;20181;-77
2022/11/26 11:49:09;;;;;;;16.63;5.83;;;8.60;99.90;;;;;;5012268;28;20216;-77
2022/11/26 11:51:49;;;;;;;17.80;5.13;;;8.60;99.90;;;;;;5012298;28;20173;-77
2022/11/26 11:54:58;;;;;;;17.10;5.03;;;8.60;99.90;;;;;;5012445;28;20169;-77
2022/11/26 11:57:43;;;;;;;8.23;4.23;;;8.70;99.90;;;;;;5015858;28;20161;-79
2022/11/26 12:00:15;;;;;;;18.80;5.57;;;8.70;99.90;;;;;;5015395;28;20280;-77
2022/11/26 12:03:18;;;;;;;12.40;5.00;;;8.70;99.90;;;;;;5012713;28;20551;-77
2022/11/26 12:06:05;;;;;;;17.73;5.47;;;8.70;99.90;;;;;;5014614;28;20205;-79
2022/11/26 12:09:08;;;;;;;12.27;4.83;;;8.80;99.90;;;;;;4997817;28;20310;-77
2022/11/26 12:11:58;;;;;;;10.80;4.60;;;8.80;99.90;;;;;;5013352;28;20181;-78
2022/11/26 12:14:32;;;;;;;22.17;5.40;;;8.80;99.90;;;;;;4996565;28;20188;-77
2022/11/26 12:17:10;;;;;;;11.03;4.33;;;8.90;99.90;;;;;;5013721;28;20164;-77
2022/11/26 12:20:07;;;;;;;12.67;4.50;;;8.90;99.90;;;;;;5012190;28;20196;-77
2022/11/26 12:22:45;;;;;;;11.17;4.43;;;9.00;99.90;;;;;;5012370;28;20243;-77
2022/11/26 12:25:26;;;;;;;12.90;4.43;;;9.00;99.90;;;;;;5013743;28;20164;-77
2022/11/26 12:28:26;;;;;;;10.37;4.53;;;9.00;99.90;;;;;;5013647;28;20197;-78
2022/11/26 12:31:39;;;;;;;10.53;4.60;;;9.00;99.90;;;;;;4971542;28;20200;-77
2022/11/26 12:34:22;;;;;;;11.23;4.73;;;9.10;99.90;;;;;;4996729;28;20631;-78
2022/11/26 12:36:59;;;;;;;11.37;4.73;;;9.10;99.90;;;;;;4996355;28;20184;-77
2022/11/26 12:39:40;;;;;;;15.10;4.67;;;9.10;99.90;;;;;;5013681;28;20215;-78
2022/11/26 12:42:27;;;;;;;12.50;4.53;;;9.20;99.90;;;;;;4995928;28;20271;-78
2022/11/26 12:44:55;;;;;;;7.63;3.47;;;9.20;99.90;;;;;;5012404;28;20181;-78
2022/11/26 12:47:30;;;;;;;13.77;4.03;;;9.20;99.90;;;;;;5014169;28;20205;-78
2022/11/26 12:50:16;;;;;;;17.87;5.03;;;9.20;99.90;;;;;;5012930;28;20230;-78
2022/11/26 12:53:06;;;;;;;11.97;4.10;;;9.20;99.90;;;;;;5012859;28;20208;-78
2022/11/26 12:55:47;;;;;;;13.80;4.73;;;9.20;99.90;;;;;;5013301;28;20173;-78
2022/11/26 12:58:21;;;;;;;17.03;4.70;;;9.30;99.90;;;;;;5013062;28;20359;-79
2022/11/26 13:00:51;;;;;;;15.87;4.57;;;9.20;99.90;;;;;;5014936;28;20188;-78
2022/11/26 13:03:25;;;;;;;12.47;4.33;;;9.30;99.90;;;;;;5016000;28;20173;-79
2022/11/26 13:05:59;;;;;;;8.97;3.67;;;9.30;99.90;;;;;;5014444;28;20652;-79